sensor_id;sensor_type;location;lat;lon;timestamp;P1;durP1;ratioP1;P2;durP2;ratioP2
58097;SDS011;43913;55.940;37.504;2023-02-28T00:01:18;7.73;;;5.53;;
58097;SDS011;43913;55.940;37.504;2023-02-28T00:03:43;6.83;;;5.53;;
58097;SDS011;43913;55.940;37.504;2023-02-28T00:06:09;7.63;;;6.23;;
58097;SDS011;43913;55.940;37.504;2023-02-28T00:08:36;7.27;;;5.83;;
58097;SDS011;43913;55.940;37.504;2023-02-28T00:11:02;7.80;;;5.87;;
58097;SDS011;43913;55.940;37.504;2023-02-28T00:13:29;7.83;;;5.83;;
58097;SDS011;43913;55.940;37.504;2023-02-28T00:15:59;7.63;;;6.03;;
58097;SDS011;43913;55.940;37.504;2023-02-28T00:18:30;7.93;;;5.43;;
58097;SDS011;43913;55.940;37.504;2023-02-28T00:20:56;6.47;;;5.10;;
58097;SDS011;43913;55.940;37.504;2023-02-28T00:23:22;7.60;;;5.80;;
58097;SDS011;43913;55.940;37.504;2023-02-28T00:25:48;8.97;;;6.33;;
58097;SDS011;43913;55.940;37.504;2023-02-28T00:28:13;6.90;;;5.63;;
58097;SDS011;43913;55.940;37.504;2023-02-28T00:30:39;8.73;;;6.10;;
58097;SDS011;43913;55.940;37.504;2023-02-28T00:33:05;6.87;;;5.70;;
58097;SDS011;43913;55.940;37.504;2023-02-28T00:35:31;7.87;;;5.70;;
58097;SDS011;43913;55.940;37.504;2023-02-28T00:37:56;9.87;;;5.90;;
58097;SDS011;43913;55.940;37.504;2023-02-28T00:40:22;8.93;;;5.47;;
58097;SDS011;43913;55.940;37.504;2023-02-28T00:42:48;7.03;;;5.30;;
58097;SDS011;43913;55.940;37.504;2023-02-28T00:45:13;6.60;;;4.83;;
58097;SDS011;43913;55.940;37.504;2023-02-28T00:47:39;6.77;;;5.30;;
58097;SDS011;43913;55.940;37.504;2023-02-28T00:50:05;7.93;;;5.53;;
58097;SDS011;43913;55.940;37.504;2023-02-28T00:52:31;6.97;;;5.23;;
58097;SDS011;43913;55.940;37.504;2023-02-28T00:54:57;7.70;;;5.97;;
58097;SDS011;43913;55.940;37.504;2023-02-28T00:57:22;8.53;;;5.47;;
58097;SDS011;43913;55.940;37.504;2023-02-28T00:59:48;6.17;;;5.10;;
58097;SDS011;43913;55.940;37.504;2023-02-28T01:02:14;7.90;;;5.37;;
58097;SDS011;43913;55.940;37.504;2023-02-28T01:04:40;7.03;;;4.93;;
58097;SDS011;43913;55.940;37.504;2023-02-28T01:07:05;7.00;;;5.13;;
58097;SDS011;43913;55.940;37.504;2023-02-28T01:09:31;6.63;;;5.70;;
58097;SDS011;43913;55.940;37.504;2023-02-28T01:11:57;6.13;;;5.53;;
58097;SDS011;43913;55.940;37.504;2023-02-28T01:14:23;7.03;;;4.73;;
58097;SDS011;43913;55.940;37.504;2023-02-28T01:16:49;6.43;;;4.60;;
58097;SDS011;43913;55.940;37.504;2023-02-28T01:19:16;6.80;;;5.33;;
58097;SDS011;43913;55.940;37.504;2023-02-28T01:21:42;6.53;;;5.27;;
58097;SDS011;43913;55.940;37.504;2023-02-28T01:24:08;6.97;;;4.80;;
58097;SDS011;43913;55.940;37.504;2023-02-28T01:26:34;8.23;;;5.23;;
58097;SDS011;43913;55.940;37.504;2023-02-28T01:29:00;6.67;;;5.13;;
58097;SDS011;43913;55.940;37.504;2023-02-28T01:31:25;6.07;;;4.40;;
58097;SDS011;43913;55.940;37.504;2023-02-28T01:33:51;6.40;;;4.57;;
58097;SDS011;43913;55.940;37.504;2023-02-28T01:36:18;5.77;;;4.47;;
58097;SDS011;43913;55.940;37.504;2023-02-28T01:38:45;6.53;;;5.23;;
58097;SDS011;43913;55.940;37.504;2023-02-28T01:41:45;6.30;;;4.80;;
58097;SDS011;43913;55.940;37.504;2023-02-28T01:44:53;6.40;;;4.70;;
58097;SDS011;43913;55.940;37.504;2023-02-28T01:47:10;6.00;;;4.50;;
58097;SDS011;43913;55.940;37.504;2023-02-28T01:49:35;5.67;;;4.50;;
58097;SDS011;43913;55.940;37.504;2023-02-28T01:52:02;7.30;;;5.57;;
58097;SDS011;43913;55.940;37.504;2023-02-28T01:54:29;5.93;;;4.37;;
58097;SDS011;43913;55.940;37.504;2023-02-28T01:57:06;6.43;;;5.03;;
58097;SDS011;43913;55.940;37.504;2023-02-28T01:59:40;4.80;;;4.27;;
58097;SDS011;43913;55.940;37.504;2023-02-28T02:02:18;5.13;;;4.40;;
58097;SDS011;43913;55.940;37.504;2023-02-28T02:05:03;5.17;;;4.20;;
58097;SDS011;43913;55.940;37.504;2023-02-28T02:07:34;5.70;;;4.50;;
58097;SDS011;43913;55.940;37.504;2023-02-28T02:13:05;6.33;;;4.30;;
58097;SDS011;43913;55.940;37.504;2023-02-28T02:16:02;6.00;;;4.50;;
58097;SDS011;43913;55.940;37.504;2023-02-28T02:18:40;6.43;;;4.30;;
58097;SDS011;43913;55.940;37.504;2023-02-28T02:21:17;5.33;;;4.17;;
58097;SDS011;43913;55.940;37.504;2023-02-28T02:30:10;7.10;;;4.45;;
58097;SDS011;43913;55.940;37.504;2023-02-28T02:32:53;5.77;;;4.30;;
58097;SDS011;43913;55.940;37.504;2023-02-28T02:35:32;5.67;;;4.23;;
58097;SDS011;43913;55.940;37.504;2023-02-28T02:46:41;7.57;;;5.10;;
58097;SDS011;43913;55.940;37.504;2023-02-28T02:49:09;5.53;;;4.37;;
58097;SDS011;43913;55.940;37.504;2023-02-28T02:51:46;6.50;;;4.77;;
58097;SDS011;43913;55.940;37.504;2023-02-28T02:54:14;7.30;;;4.77;;
58097;SDS011;43913;55.940;37.504;2023-02-28T02:56:43;7.60;;;4.87;;
58097;SDS011;43913;55.940;37.504;2023-02-28T02:59:12;6.43;;;4.40;;
58097;SDS011;43913;55.940;37.504;2023-02-28T03:01:39;7.23;;;5.07;;
58097;SDS011;43913;55.940;37.504;2023-02-28T03:04:07;5.30;;;4.23;;
58097;SDS011;43913;55.940;37.504;2023-02-28T03:06:38;5.77;;;4.67;;
58097;SDS011;43913;55.940;37.504;2023-02-28T03:09:03;6.90;;;4.90;;
58097;SDS011;43913;55.940;37.504;2023-02-28T03:11:29;8.43;;;5.50;;
58097;SDS011;43913;55.940;37.504;2023-02-28T03:19:26;6.03;;;4.77;;
58097;SDS011;43913;55.940;37.504;2023-02-28T03:22:14;7.07;;;5.27;;
58097;SDS011;43913;55.940;37.504;2023-02-28T03:27:55;6.67;;;5.03;;
58097;SDS011;43913;55.940;37.504;2023-02-28T03:33:16;7.05;;;4.57;;
58097;SDS011;43913;55.940;37.504;2023-02-28T03:35:49;6.07;;;4.27;;
58097;SDS011;43913;55.940;37.504;2023-02-28T03:40:51;7.07;;;4.23;;
58097;SDS011;43913;55.940;37.504;2023-02-28T03:43:24;6.10;;;4.63;;
58097;SDS011;43913;55.940;37.504;2023-02-28T03:45:52;5.17;;;4.10;;
58097;SDS011;43913;55.940;37.504;2023-02-28T03:48:21;7.97;;;4.53;;
58097;SDS011;43913;55.940;37.504;2023-02-28T03:50:54;6.30;;;4.90;;
58097;SDS011;43913;55.940;37.504;2023-02-28T03:53:30;5.13;;;4.30;;
58097;SDS011;43913;55.940;37.504;2023-02-28T04:01:23;4.87;;;3.97;;
58097;SDS011;43913;55.940;37.504;2023-02-28T04:03:51;6.13;;;4.10;;
58097;SDS011;43913;55.940;37.504;2023-02-28T04:06:18;5.60;;;4.00;;
58097;SDS011;43913;55.940;37.504;2023-02-28T04:08:45;6.57;;;4.60;;
58097;SDS011;43913;55.940;37.504;2023-02-28T04:13:52;5.63;;;3.90;;
58097;SDS011;43913;55.940;37.504;2023-02-28T04:16:17;7.23;;;5.03;;
58097;SDS011;43913;55.940;37.504;2023-02-28T04:18:43;6.07;;;4.30;;
58097;SDS011;43913;55.940;37.504;2023-02-28T04:21:09;5.37;;;4.10;;
58097;SDS011;43913;55.940;37.504;2023-02-28T04:23:35;5.73;;;4.43;;
58097;SDS011;43913;55.940;37.504;2023-02-28T04:26:01;5.80;;;4.03;;
58097;SDS011;43913;55.940;37.504;2023-02-28T04:28:27;6.37;;;4.53;;
58097;SDS011;43913;55.940;37.504;2023-02-28T04:31:01;5.33;;;4.33;;
58097;SDS011;43913;55.940;37.504;2023-02-28T04:33:28;7.67;;;4.73;;
58097;SDS011;43913;55.940;37.504;2023-02-28T04:35:58;7.73;;;4.80;;
58097;SDS011;43913;55.940;37.504;2023-02-28T04:38:25;6.43;;;3.60;;
58097;SDS011;43913;55.940;37.504;2023-02-28T04:40:51;5.00;;;3.70;;
58097;SDS011;43913;55.940;37.504;2023-02-28T04:43:17;5.43;;;4.13;;
58097;SDS011;43913;55.940;37.504;2023-02-28T04:45:42;5.40;;;4.00;;
58097;SDS011;43913;55.940;37.504;2023-02-28T04:48:08;5.70;;;4.10;;
58097;SDS011;43913;55.940;37.504;2023-02-28T04:50:34;5.53;;;4.00;;
58097;SDS011;43913;55.940;37.504;2023-02-28T04:52:59;6.27;;;4.93;;
58097;SDS011;43913;55.940;37.504;2023-02-28T04:55:25;5.83;;;3.93;;
58097;SDS011;43913;55.940;37.504;2023-02-28T04:57:51;5.27;;;4.10;;
58097;SDS011;43913;55.940;37.504;2023-02-28T05:00:16;6.47;;;4.40;;
58097;SDS011;43913;55.940;37.504;2023-02-28T05:02:42;4.73;;;3.80;;
58097;SDS011;43913;55.940;37.504;2023-02-28T05:05:09;5.80;;;4.07;;
58097;SDS011;43913;55.940;37.504;2023-02-28T05:07:34;4.77;;;3.80;;
58097;SDS011;43913;55.940;37.504;2023-02-28T05:10:00;4.37;;;3.93;;
58097;SDS011;43913;55.940;37.504;2023-02-28T05:12:26;5.50;;;3.93;;
58097;SDS011;43913;55.940;37.504;2023-02-28T05:14:51;7.30;;;4.30;;
58097;SDS011;43913;55.940;37.504;2023-02-28T05:17:17;6.00;;;4.33;;
58097;SDS011;43913;55.940;37.504;2023-02-28T05:19:42;5.13;;;3.83;;
58097;SDS011;43913;55.940;37.504;2023-02-28T05:22:12;5.67;;;3.90;;
58097;SDS011;43913;55.940;37.504;2023-02-28T05:24:40;4.70;;;4.10;;
58097;SDS011;43913;55.940;37.504;2023-02-28T05:27:07;3.93;;;3.20;;
58097;SDS011;43913;55.940;37.504;2023-02-28T05:29:33;4.53;;;3.47;;
58097;SDS011;43913;55.940;37.504;2023-02-28T05:31:59;5.00;;;3.53;;
58097;SDS011;43913;55.940;37.504;2023-02-28T05:34:25;5.83;;;4.17;;
58097;SDS011;43913;55.940;37.504;2023-02-28T05:36:51;3.83;;;3.27;;
58097;SDS011;43913;55.940;37.504;2023-02-28T05:39:17;4.67;;;3.37;;
58097;SDS011;43913;55.940;37.504;2023-02-28T05:41:43;4.40;;;3.83;;
58097;SDS011;43913;55.940;37.504;2023-02-28T05:44:09;4.40;;;3.70;;
58097;SDS011;43913;55.940;37.504;2023-02-28T05:46:35;5.73;;;3.73;;
58097;SDS011;43913;55.940;37.504;2023-02-28T05:49:01;6.77;;;3.50;;
58097;SDS011;43913;55.940;37.504;2023-02-28T05:51:27;6.27;;;3.90;;
58097;SDS011;43913;55.940;37.504;2023-02-28T05:53:53;5.30;;;3.80;;
58097;SDS011;43913;55.940;37.504;2023-02-28T05:56:19;4.20;;;3.80;;
58097;SDS011;43913;55.940;37.504;2023-02-28T05:58:44;5.13;;;3.87;;
58097;SDS011;43913;55.940;37.504;2023-02-28T06:04:06;4.27;;;3.30;;
58097;SDS011;43913;55.940;37.504;2023-02-28T06:06:33;4.77;;;3.67;;
58097;SDS011;43913;55.940;37.504;2023-02-28T06:08:59;4.57;;;3.60;;
58097;SDS011;43913;55.940;37.504;2023-02-28T06:11:26;4.67;;;3.43;;
58097;SDS011;43913;55.940;37.504;2023-02-28T06:13:53;4.67;;;3.57;;
58097;SDS011;43913;55.940;37.504;2023-02-28T06:16:20;5.57;;;4.13;;
58097;SDS011;43913;55.940;37.504;2023-02-28T06:18:46;4.35;;;3.67;;
58097;SDS011;43913;55.940;37.504;2023-02-28T06:21:12;4.43;;;4.03;;
58097;SDS011;43913;55.940;37.504;2023-02-28T06:23:38;6.38;;;3.50;;
58097;SDS011;43913;55.940;37.504;2023-02-28T06:26:04;4.53;;;3.38;;
58097;SDS011;43913;55.940;37.504;2023-02-28T06:28:30;5.77;;;3.80;;
58097;SDS011;43913;55.940;37.504;2023-02-28T06:30:56;4.97;;;3.70;;
58097;SDS011;43913;55.940;37.504;2023-02-28T06:33:22;5.57;;;3.90;;
58097;SDS011;43913;55.940;37.504;2023-02-28T06:35:50;5.00;;;3.75;;
58097;SDS011;43913;55.940;37.504;2023-02-28T06:38:34;5.00;;;4.07;;
58097;SDS011;43913;55.940;37.504;2023-02-28T06:41:00;5.05;;;3.95;;
58097;SDS011;43913;55.940;37.504;2023-02-28T06:43:31;4.50;;;3.72;;
58097;SDS011;43913;55.940;37.504;2023-02-28T06:45:58;27.10;;;5.40;;
58097;SDS011;43913;55.940;37.504;2023-02-28T06:48:26;4.28;;;3.40;;
58097;SDS011;43913;55.940;37.504;2023-02-28T06:51:04;4.10;;;3.60;;
58097;SDS011;43913;55.940;37.504;2023-02-28T06:53:33;5.43;;;3.90;;
58097;SDS011;43913;55.940;37.504;2023-02-28T06:55:59;5.35;;;3.60;;
58097;SDS011;43913;55.940;37.504;2023-02-28T06:58:29;6.90;;;3.97;;
58097;SDS011;43913;55.940;37.504;2023-02-28T07:00:54;3.42;;;3.08;;
58097;SDS011;43913;55.940;37.504;2023-02-28T07:03:21;4.63;;;3.50;;
58097;SDS011;43913;55.940;37.504;2023-02-28T07:05:47;4.03;;;3.60;;
58097;SDS011;43913;55.940;37.504;2023-02-28T07:08:12;3.50;;;3.15;;
58097;SDS011;43913;55.940;37.504;2023-02-28T07:10:38;4.78;;;2.92;;
58097;SDS011;43913;55.940;37.504;2023-02-28T07:13:04;3.95;;;3.17;;
58097;SDS011;43913;55.940;37.504;2023-02-28T07:15:34;3.42;;;3.03;;
58097;SDS011;43913;55.940;37.504;2023-02-28T07:18:00;4.15;;;3.45;;
58097;SDS011;43913;55.940;37.504;2023-02-28T07:20:26;4.63;;;3.92;;
58097;SDS011;43913;55.940;37.504;2023-02-28T07:22:52;5.20;;;3.33;;
58097;SDS011;43913;55.940;37.504;2023-02-28T07:25:22;4.30;;;3.65;;
58097;SDS011;43913;55.940;37.504;2023-02-28T07:27:49;6.65;;;3.85;;
58097;SDS011;43913;55.940;37.504;2023-02-28T07:30:15;5.28;;;3.95;;
58097;SDS011;43913;55.940;37.504;2023-02-28T07:32:41;3.65;;;2.83;;
58097;SDS011;43913;55.940;37.504;2023-02-28T07:35:06;4.07;;;3.67;;
58097;SDS011;43913;55.940;37.504;2023-02-28T07:37:32;5.45;;;3.58;;
58097;SDS011;43913;55.940;37.504;2023-02-28T07:40:05;3.47;;;3.17;;
58097;SDS011;43913;55.940;37.504;2023-02-28T07:42:34;5.78;;;3.55;;
58097;SDS011;43913;55.940;37.504;2023-02-28T07:45:00;5.28;;;3.03;;
58097;SDS011;43913;55.940;37.504;2023-02-28T07:47:28;4.30;;;3.20;;
58097;SDS011;43913;55.940;37.504;2023-02-28T07:49:55;3.78;;;3.33;;
58097;SDS011;43913;55.940;37.504;2023-02-28T07:52:21;4.55;;;3.47;;
58097;SDS011;43913;55.940;37.504;2023-02-28T07:54:49;5.03;;;3.95;;
58097;SDS011;43913;55.940;37.504;2023-02-28T07:57:17;4.28;;;3.20;;
58097;SDS011;43913;55.940;37.504;2023-02-28T07:59:43;4.63;;;3.20;;
58097;SDS011;43913;55.940;37.504;2023-02-28T08:02:13;6.88;;;3.42;;
58097;SDS011;43913;55.940;37.504;2023-02-28T08:04:43;4.47;;;3.33;;
58097;SDS011;43913;55.940;37.504;2023-02-28T08:07:09;4.40;;;3.20;;
58097;SDS011;43913;55.940;37.504;2023-02-28T08:09:39;4.15;;;3.03;;
58097;SDS011;43913;55.940;37.504;2023-02-28T08:12:09;4.80;;;3.20;;
58097;SDS011;43913;55.940;37.504;2023-02-28T08:14:35;3.97;;;3.13;;
58097;SDS011;43913;55.940;37.504;2023-02-28T08:17:02;5.05;;;3.67;;
58097;SDS011;43913;55.940;37.504;2023-02-28T08:19:30;4.82;;;2.83;;
58097;SDS011;43913;55.940;37.504;2023-02-28T08:21:56;3.97;;;3.05;;
58097;SDS011;43913;55.940;37.504;2023-02-28T08:24:22;3.63;;;2.70;;
58097;SDS011;43913;55.940;37.504;2023-02-28T08:26:48;6.57;;;4.20;;
58097;SDS011;43913;55.940;37.504;2023-02-28T08:29:14;4.15;;;3.47;;
58097;SDS011;43913;55.940;37.504;2023-02-28T08:31:39;4.47;;;3.42;;
58097;SDS011;43913;55.940;37.504;2023-02-28T08:34:09;5.05;;;4.15;;
58097;SDS011;43913;55.940;37.504;2023-02-28T08:36:36;4.10;;;3.53;;
58097;SDS011;43913;55.940;37.504;2023-02-28T08:39:03;4.40;;;3.28;;
58097;SDS011;43913;55.940;37.504;2023-02-28T08:41:28;4.10;;;3.40;;
58097;SDS011;43913;55.940;37.504;2023-02-28T08:43:55;3.50;;;2.78;;
58097;SDS011;43913;55.940;37.504;2023-02-28T08:46:20;4.22;;;3.17;;
58097;SDS011;43913;55.940;37.504;2023-02-28T08:48:46;4.68;;;3.22;;
58097;SDS011;43913;55.940;37.504;2023-02-28T08:51:13;3.67;;;3.00;;
58097;SDS011;43913;55.940;37.504;2023-02-28T08:53:41;4.03;;;3.25;;
58097;SDS011;43913;55.940;37.504;2023-02-28T08:56:08;5.40;;;4.00;;
58097;SDS011;43913;55.940;37.504;2023-02-28T08:58:35;5.18;;;3.17;;
58097;SDS011;43913;55.940;37.504;2023-02-28T09:01:06;3.97;;;3.10;;
58097;SDS011;43913;55.940;37.504;2023-02-28T09:03:37;4.13;;;2.90;;
58097;SDS011;43913;55.940;37.504;2023-02-28T09:06:03;3.72;;;3.38;;
58097;SDS011;43913;55.940;37.504;2023-02-28T09:08:30;4.80;;;3.47;;
58097;SDS011;43913;55.940;37.504;2023-02-28T09:10:56;3.58;;;2.80;;
58097;SDS011;43913;55.940;37.504;2023-02-28T09:13:23;6.28;;;3.10;;
58097;SDS011;43913;55.940;37.504;2023-02-28T09:15:50;4.78;;;3.15;;
58097;SDS011;43913;55.940;37.504;2023-02-28T09:18:16;3.47;;;2.70;;
58097;SDS011;43913;55.940;37.504;2023-02-28T09:20:42;4.72;;;3.35;;
58097;SDS011;43913;55.940;37.504;2023-02-28T09:23:09;4.15;;;3.00;;
58097;SDS011;43913;55.940;37.504;2023-02-28T09:25:36;3.80;;;3.42;;
58097;SDS011;43913;55.940;37.504;2023-02-28T09:28:03;4.90;;;3.28;;
58097;SDS011;43913;55.940;37.504;2023-02-28T09:30:29;4.03;;;2.80;;
58097;SDS011;43913;55.940;37.504;2023-02-28T09:32:55;3.17;;;2.78;;
58097;SDS011;43913;55.940;37.504;2023-02-28T09:35:22;4.00;;;3.08;;
58097;SDS011;43913;55.940;37.504;2023-02-28T09:37:49;3.63;;;3.22;;
58097;SDS011;43913;55.940;37.504;2023-02-28T09:40:17;4.63;;;2.78;;
58097;SDS011;43913;55.940;37.504;2023-02-28T09:42:48;4.00;;;3.33;;
58097;SDS011;43913;55.940;37.504;2023-02-28T09:47:46;5.20;;;2.58;;
58097;SDS011;43913;55.940;37.504;2023-02-28T09:52:51;2.75;;;2.55;;
58097;SDS011;43913;55.940;37.504;2023-02-28T09:55:41;3.67;;;3.13;;
58097;SDS011;43913;55.940;37.504;2023-02-28T09:58:33;3.30;;;3.00;;
58097;SDS011;43913;55.940;37.504;2023-02-28T10:01:18;4.30;;;2.95;;
58097;SDS011;43913;55.940;37.504;2023-02-28T10:06:26;3.55;;;2.58;;
58097;SDS011;43913;55.940;37.504;2023-02-28T10:11:24;3.42;;;2.83;;
58097;SDS011;43913;55.940;37.504;2023-02-28T10:13:59;3.85;;;3.13;;
58097;SDS011;43913;55.940;37.504;2023-02-28T10:16:41;4.25;;;3.10;;
58097;SDS011;43913;55.940;37.504;2023-02-28T10:19:14;4.15;;;3.50;;
58097;SDS011;43913;55.940;37.504;2023-02-28T10:22:26;3.08;;;2.58;;
58097;SDS011;43913;55.940;37.504;2023-02-28T10:24:47;3.30;;;2.65;;
58097;SDS011;43913;55.940;37.504;2023-02-28T10:27:15;4.68;;;3.42;;
58097;SDS011;43913;55.940;37.504;2023-02-28T10:29:52;4.03;;;3.25;;
58097;SDS011;43913;55.940;37.504;2023-02-28T10:32:20;4.97;;;3.25;;
58097;SDS011;43913;55.940;37.504;2023-02-28T10:35:00;4.03;;;3.30;;
58097;SDS011;43913;55.940;37.504;2023-02-28T10:37:27;6.45;;;2.70;;
58097;SDS011;43913;55.940;37.504;2023-02-28T10:39:53;5.90;;;3.22;;
58097;SDS011;43913;55.940;37.504;2023-02-28T10:42:20;4.72;;;3.00;;
58097;SDS011;43913;55.940;37.504;2023-02-28T10:55:57;3.80;;;2.90;;
58097;SDS011;43913;55.940;37.504;2023-02-28T10:58:25;3.50;;;2.97;;
58097;SDS011;43913;55.940;37.504;2023-02-28T11:00:53;4.90;;;3.13;;
58097;SDS011;43913;55.940;37.504;2023-02-28T11:03:23;8.27;;;4.80;;
58097;SDS011;43913;55.940;37.504;2023-02-28T11:06:11;6.95;;;4.68;;
58097;SDS011;43913;55.940;37.504;2023-02-28T11:08:46;3.78;;;2.78;;
58097;SDS011;43913;55.940;37.504;2023-02-28T11:11:16;5.00;;;3.45;;
58097;SDS011;43913;55.940;37.504;2023-02-28T11:13:42;6.03;;;3.55;;
58097;SDS011;43913;55.940;37.504;2023-02-28T11:16:09;5.55;;;3.60;;
58097;SDS011;43913;55.940;37.504;2023-02-28T11:21:19;3.92;;;3.22;;
58097;SDS011;43913;55.940;37.504;2023-02-28T11:23:46;4.15;;;3.17;;
58097;SDS011;43913;55.940;37.504;2023-02-28T11:26:12;6.88;;;3.70;;
58097;SDS011;43913;55.940;37.504;2023-02-28T11:28:39;5.15;;;3.08;;
58097;SDS011;43913;55.940;37.504;2023-02-28T11:31:14;4.13;;;3.30;;
58097;SDS011;43913;55.940;37.504;2023-02-28T11:38:51;4.43;;;3.42;;
58097;SDS011;43913;55.940;37.504;2023-02-28T11:46:41;4.35;;;3.22;;
58097;SDS011;43913;55.940;37.504;2023-02-28T11:49:21;5.13;;;3.15;;
58097;SDS011;43913;55.940;37.504;2023-02-28T11:51:56;6.00;;;3.15;;
58097;SDS011;43913;55.940;37.504;2023-02-28T12:13:54;4.22;;;3.50;;
58097;SDS011;43913;55.940;37.504;2023-02-28T12:27:39;4.78;;;4.25;;
58097;SDS011;43913;55.940;37.504;2023-02-28T12:30:13;5.07;;;3.50;;
58097;SDS011;43913;55.940;37.504;2023-02-28T12:32:41;4.30;;;3.55;;
58097;SDS011;43913;55.940;37.504;2023-02-28T12:37:37;4.03;;;3.45;;
58097;SDS011;43913;55.940;37.504;2023-02-28T12:40:09;4.97;;;3.30;;
58097;SDS011;43913;55.940;37.504;2023-02-28T12:42:42;5.78;;;3.97;;
58097;SDS011;43913;55.940;37.504;2023-02-28T12:45:15;4.53;;;3.72;;
58097;SDS011;43913;55.940;37.504;2023-02-28T12:47:42;6.85;;;3.65;;
58097;SDS011;43913;55.940;37.504;2023-02-28T12:50:11;4.47;;;3.72;;
58097;SDS011;43913;55.940;37.504;2023-02-28T12:55:13;3.95;;;3.55;;
58097;SDS011;43913;55.940;37.504;2023-02-28T12:57:58;4.87;;;3.30;;
58097;SDS011;43913;55.940;37.504;2023-02-28T13:00:35;3.60;;;3.20;;
